Time;durP1;ratioP1;P1;durP2;ratioP2;P2;SDS_P1;SDS_P2;PMS_P1;PMS_P2;Temp;Humidity;BMP_temperature;BMP_pressure;BME280_temperature;BME280_humidity;BME280_pressure;Samples;Min_cycle;Max_cycle;Signal;HPM_P1;HPM_P2
2023/09/17 00:00:09;;;;;;;2.10;1.90;;;22.00;63.50;;;;;;5060330;28;20404;-68
2023/09/17 00:02:35;;;;;;;2.35;1.52;;;22.00;63.40;;;;;;5058072;28;20020;-67
2023/09/17 00:05:01;;;;;;;2.28;1.70;;;22.00;63.10;;;;;;5040101;28;20168;-67
2023/09/17 00:07:29;;;;;;;2.35;1.52;;;22.00;63.00;;;;;;5061279;28;20056;-67
2023/09/17 00:09:54;;;;;;;3.47;1.73;;;22.00;62.80;;;;;;5049827;28;20063;-68
2023/09/17 00:12:20;;;;;;;2.08;1.55;;;22.00;62.70;;;;;;5058304;28;20033;-67
2023/09/17 00:14:46;;;;;;;3.25;1.92;;;22.00;62.50;;;;;;5065081;28;20036;-68
2023/09/17 00:17:12;;;;;;;1.67;1.55;;;22.00;62.40;;;;;;5063369;28;20025;-67
2023/09/17 00:19:38;;;;;;;2.28;1.70;;;22.00;62.50;;;;;;5059727;28;20029;-67
2023/09/17 00:22:06;;;;;;;5.22;2.05;;;22.00;62.40;;;;;;5047166;28;20115;-67
2023/09/17 00:24:33;;;;;;;2.72;2.00;;;22.00;62.10;;;;;;5061293;28;20033;-68
2023/09/17 00:26:58;;;;;;;2.53;2.13;;;22.00;62.00;;;;;;5062273;28;20491;-67
2023/09/17 00:29:25;;;;;;;2.13;1.92;;;22.00;61.90;;;;;;5046401;28;20041;-67
2023/09/17 00:31:51;;;;;;;2.97;1.80;;;21.90;61.80;;;;;;5068055;28;20493;-67
2023/09/17 00:34:16;;;;;;;1.88;1.48;;;21.90;61.70;;;;;;5065014;28;20170;-68
2023/09/17 00:36:42;;;;;;;2.33;1.58;;;21.90;61.70;;;;;;5069531;28;20025;-67
2023/09/17 00:39:09;;;;;;;2.33;1.92;;;21.80;61.70;;;;;;5061995;28;20029;-68
2023/09/17 00:41:35;;;;;;;2.30;1.92;;;21.80;61.60;;;;;;5063218;28;20021;-67
2023/09/17 00:44:01;;;;;;;1.67;1.50;;;21.80;61.50;;;;;;5062846;28;20090;-67
2023/09/17 00:46:27;;;;;;;1.58;1.30;;;21.80;61.60;;;;;;5067570;28;20032;-67
2023/09/17 00:48:53;;;;;;;4.88;1.98;;;21.80;61.40;;;;;;5069183;28;20036;-67
2023/09/17 00:51:19;;;;;;;2.10;1.67;;;21.70;61.20;;;;;;5067037;28;20163;-68
2023/09/17 00:53:45;;;;;;;2.08;1.50;;;21.80;61.20;;;;;;5049431;28;20051;-68
2023/09/17 00:56:11;;;;;;;1.40;1.23;;;21.80;61.10;;;;;;5067004;28;20024;-67
2023/09/17 00:58:37;;;;;;;2.80;1.90;;;21.80;61.10;;;;;;5048649;28;20487;-67
2023/09/17 01:01:07;;;;;;;3.13;2.17;;;21.80;60.90;;;;;;5067789;28;20025;-67
2023/09/17 01:03:34;;;;;;;2.75;1.77;;;21.70;61.00;;;;;;5070040;28;20114;-68
2023/09/17 01:06:02;;;;;;;1.70;1.40;;;21.70;61.20;;;;;;5068766;28;20040;-67
2023/09/17 01:08:28;;;;;;;2.45;1.85;;;21.70;61.30;;;;;;5069125;28;20034;-67
2023/09/17 01:10:54;;;;;;;2.03;1.65;;;21.70;61.40;;;;;;5046802;28;20345;-68
2023/09/17 01:13:21;;;;;;;2.38;1.60;;;21.70;61.60;;;;;;5067647;28;20033;-68
2023/09/17 01:15:46;;;;;;;4.07;1.98;;;21.70;61.80;;;;;;5066251;28;20439;-67
2023/09/17 01:18:12;;;;;;;2.70;2.00;;;21.60;62.00;;;;;;5067567;28;20024;-67
2023/09/17 01:20:48;;;;;;;2.95;2.15;;;21.60;62.10;;;;;;5064236;28;20491;-67
2023/09/17 01:23:36;;;;;;;4.55;2.10;;;21.60;62.20;;;;;;5064090;28;20024;-67
2023/09/17 01:26:12;;;;;;;2.55;1.70;;;21.50;62.40;;;;;;5060792;28;20036;-67
2023/09/17 01:28:40;;;;;;;2.17;1.80;;;21.50;62.70;;;;;;5059022;28;20039;-67
2023/09/17 01:31:05;;;;;;;3.08;1.85;;;21.40;63.30;;;;;;5062926;28;20040;-67
2023/09/17 01:33:33;;;;;;;2.80;2.20;;;21.40;63.70;;;;;;5067883;28;20033;-67
2023/09/17 01:36:24;;;;;;;3.70;2.38;;;21.30;64.80;;;;;;5030470;28;20035;-67
2023/09/17 01:39:03;;;;;;;2.90;2.10;;;21.30;65.30;;;;;;5048523;28;20025;-66
2023/09/17 01:41:30;;;;;;;4.72;2.67;;;21.10;66.00;;;;;;5068152;28;20021;-67
2023/09/17 01:43:56;;;;;;;2.58;1.80;;;20.90;66.80;;;;;;5064049;28;20369;-66
2023/09/17 01:46:23;;;;;;;3.13;2.47;;;20.80;67.20;;;;;;5064633;28;20022;-66
2023/09/17 01:48:49;;;;;;;6.13;2.72;;;20.80;67.90;;;;;;5051435;28;20530;-66
2023/09/17 01:51:16;;;;;;;3.22;2.20;;;20.60;68.40;;;;;;5068265;28;20021;-66
2023/09/17 01:53:42;;;;;;;4.90;2.30;;;20.60;68.70;;;;;;5062410;28;20021;-65
2023/09/17 01:56:08;;;;;;;3.05;2.40;;;20.50;68.90;;;;;;5041068;28;20029;-67
2023/09/17 01:58:33;;;;;;;3.17;2.30;;;20.40;69.10;;;;;;5058341;28;20036;-66
2023/09/17 02:01:00;;;;;;;3.30;2.33;;;20.30;69.40;;;;;;5060166;28;20029;-66
2023/09/17 02:03:26;;;;;;;3.58;2.40;;;20.30;69.80;;;;;;5062561;28;20472;-66
2023/09/17 02:05:51;;;;;;;4.53;2.65;;;20.20;69.80;;;;;;5040402;28;20126;-66
2023/09/17 02:08:17;;;;;;;2.97;2.63;;;20.10;70.00;;;;;;5056848;28;20068;-66
2023/09/17 02:10:43;;;;;;;3.97;2.20;;;20.10;70.20;;;;;;5042621;28;20065;-66
2023/09/17 02:13:08;;;;;;;3.20;1.83;;;20.10;70.40;;;;;;5063665;28;20044;-66
2023/09/17 02:15:34;;;;;;;3.53;2.47;;;20.00;70.40;;;;;;5063991;28;20037;-66
2023/09/17 02:18:00;;;;;;;3.28;2.78;;;20.00;70.30;;;;;;5062765;28;20054;-66
2023/09/17 02:20:25;;;;;;;2.88;2.40;;;20.00;70.40;;;;;;5060548;28;20499;-66
2023/09/17 02:22:51;;;;;;;3.67;2.83;;;20.00;70.50;;;;;;5061184;28;20096;-66
2023/09/17 02:25:17;;;;;;;3.88;2.35;;;20.00;70.80;;;;;;5060341;28;20044;-66
2023/09/17 02:27:43;;;;;;;3.08;2.67;;;19.90;71.10;;;;;;5064029;28;20037;-66
2023/09/17 02:30:09;;;;;;;3.20;2.30;;;19.90;71.20;;;;;;5039723;28;20044;-66
2023/09/17 02:32:37;;;;;;;4.00;2.15;;;19.80;71.20;;;;;;5064367;28;20044;-66
2023/09/17 02:35:07;;;;;;;5.22;2.60;;;19.80;71.30;;;;;;5064305;28;20147;-66
2023/09/17 02:37:33;;;;;;;3.40;2.60;;;19.80;71.30;;;;;;5046551;28;20307;-66
2023/09/17 02:39:59;;;;;;;5.53;2.85;;;19.80;71.60;;;;;;5064984;28;20047;-66
2023/09/17 02:42:25;;;;;;;4.70;2.33;;;19.70;71.70;;;;;;5065813;28;20031;-67
2023/09/17 02:44:51;;;;;;;2.78;2.30;;;19.70;71.80;;;;;;5061834;28;20041;-67
2023/09/17 02:47:16;;;;;;;3.20;2.38;;;19.70;71.80;;;;;;5059322;28;20465;-67
2023/09/17 02:49:42;;;;;;;1.85;1.58;;;19.70;71.60;;;;;;5049798;28;20035;-66
2023/09/17 02:52:08;;;;;;;4.38;1.67;;;19.70;71.50;;;;;;5064284;28;20040;-67
2023/09/17 02:54:34;;;;;;;2.00;1.70;;;19.70;71.40;;;;;;5066014;28;20036;-67
2023/09/17 02:57:00;;;;;;;1.92;1.65;;;19.70;71.30;;;;;;5067495;28;20035;-67
2023/09/17 02:59:26;;;;;;;1.85;1.45;;;19.60;71.30;;;;;;5062925;28;20029;-67
2023/09/17 03:01:51;;;;;;;3.17;2.22;;;19.60;71.30;;;;;;5067067;28;20028;-67
2023/09/17 03:04:17;;;;;;;2.42;1.65;;;19.60;71.40;;;;;;5046091;28;20451;-67
2023/09/17 03:06:43;;;;;;;2.22;1.75;;;19.60;71.50;;;;;;5047474;28;20025;-66
2023/09/17 03:09:11;;;;;;;3.08;2.08;;;19.60;71.60;;;;;;5065828;28;20041;-66
2023/09/17 03:11:37;;;;;;;2.85;1.80;;;19.60;71.80;;;;;;5061706;28;20076;-66
2023/09/17 03:14:03;;;;;;;2.55;2.03;;;19.60;71.90;;;;;;5064580;28;20035;-66
2023/09/17 03:16:29;;;;;;;3.63;1.90;;;19.50;71.90;;;;;;5065308;28;20496;-67
2023/09/17 03:18:55;;;;;;;1.98;1.73;;;19.50;72.00;;;;;;5047000;28;20380;-66
2023/09/17 03:21:21;;;;;;;2.75;1.92;;;19.50;72.20;;;;;;5062999;28;20327;-67
2023/09/17 03:23:47;;;;;;;3.28;2.00;;;19.50;72.30;;;;;;5066203;28;20078;-67
2023/09/17 03:26:13;;;;;;;3.47;2.42;;;19.50;72.40;;;;;;5065889;28;20064;-66
2023/09/17 03:28:38;;;;;;;2.83;1.90;;;19.50;72.50;;;;;;5056490;28;20123;-66
2023/09/17 03:31:04;;;;;;;3.63;2.72;;;19.50;72.70;;;;;;5056693;28;20248;-66
2023/09/17 03:33:30;;;;;;;3.20;2.30;;;19.40;72.90;;;;;;5059524;28;20392;-66
2023/09/17 03:35:57;;;;;;;3.30;1.60;;;19.40;73.00;;;;;;5060224;28;20368;-66
2023/09/17 03:38:23;;;;;;;2.33;2.13;;;19.40;73.00;;;;;;5039191;28;20050;-66
2023/09/17 03:40:49;;;;;;;3.42;1.80;;;19.40;73.20;;;;;;5059261;28;20121;-67
2023/09/17 03:43:15;;;;;;;2.42;1.65;;;19.40;73.30;;;;;;5055544;28;20017;-66
2023/09/17 03:45:41;;;;;;;2.85;2.13;;;19.40;73.20;;;;;;5055450;28;20099;-66
2023/09/17 03:48:07;;;;;;;3.05;2.20;;;19.40;73.30;;;;;;5056388;28;20095;-66
2023/09/17 03:50:38;;;;;;;3.63;2.22;;;19.40;73.50;;;;;;5052826;28;20025;-66
2023/09/17 03:53:05;;;;;;;4.33;2.37;;;19.40;73.50;;;;;;5053970;28;20032;-65
2023/09/17 03:55:33;;;;;;;2.42;2.00;;;19.30;73.70;;;;;;5057191;28;20379;-66
2023/09/17 03:58:00;;;;;;;3.00;2.03;;;19.40;73.70;;;;;;5051969;28;20013;-66
2023/09/17 04:00:26;;;;;;;3.47;1.92;;;19.40;73.70;;;;;;5061038;28;20017;-65
2023/09/17 04:02:52;;;;;;;2.63;1.70;;;19.40;73.80;;;;;;5040733;28;20059;-66
2023/09/17 04:05:21;;;;;;;3.05;2.20;;;19.40;73.80;;;;;;5042491;28;20037;-66
2023/09/17 04:07:47;;;;;;;3.28;2.35;;;19.40;74.00;;;;;;5062793;28;20143;-65
2023/09/17 04:10:17;;;;;;;2.90;2.13;;;19.40;74.20;;;;;;5065816;28;20074;-65
2023/09/17 04:12:46;;;;;;;3.50;1.92;;;19.40;74.20;;;;;;5039859;28;20039;-65
2023/09/17 04:15:18;;;;;;;3.35;2.00;;;19.40;74.50;;;;;;5061270;28;20024;-65
2023/09/17 04:17:45;;;;;;;3.30;2.28;;;19.40;74.80;;;;;;5059765;28;20063;-66
2023/09/17 04:20:13;;;;;;;3.00;2.03;;;19.40;75.10;;;;;;5066192;28;20021;-66
2023/09/17 04:22:41;;;;;;;2.75;2.15;;;19.30;75.20;;;;;;5058294;28;20495;-66
2023/09/17 04:25:09;;;;;;;2.90;2.00;;;19.40;75.40;;;;;;5042133;28;20037;-65
2023/09/17 04:27:36;;;;;;;2.17;1.80;;;19.40;75.40;;;;;;5061426;28;20475;-65
2023/09/17 04:30:05;;;;;;;3.03;2.42;;;19.40;75.40;;;;;;5062669;28;20045;-65
2023/09/17 04:32:39;;;;;;;2.47;1.80;;;19.40;75.50;;;;;;5045882;28;20040;-65
2023/09/17 04:35:10;;;;;;;3.78;2.25;;;19.40;75.70;;;;;;5039974;28;20876;-65
2023/09/17 04:37:37;;;;;;;3.08;2.20;;;19.40;75.90;;;;;;5063993;28;20028;-65
2023/09/17 04:40:11;;;;;;;2.97;2.20;;;19.40;75.90;;;;;;5062927;28;20467;-65
2023/09/17 04:42:38;;;;;;;7.18;2.47;;;19.40;76.10;;;;;;5061703;28;20040;-65
2023/09/17 04:45:05;;;;;;;3.05;2.13;;;19.40;76.20;;;;;;5064115;28;20033;-65
2023/09/17 04:47:33;;;;;;;3.53;2.25;;;19.40;76.40;;;;;;5066708;28;20032;-65
2023/09/17 04:49:59;;;;;;;3.50;2.40;;;19.40;76.60;;;;;;5043193;28;20131;-65
2023/09/17 04:52:25;;;;;;;3.03;2.30;;;19.40;76.70;;;;;;5064034;28;20118;-65
2023/09/17 04:54:51;;;;;;;2.90;2.38;;;19.40;76.70;;;;;;5041486;28;20491;-66
2023/09/17 04:57:17;;;;;;;2.53;2.22;;;19.40;76.80;;;;;;5058356;28;20033;-65
2023/09/17 04:59:42;;;;;;;3.63;2.60;;;19.40;76.90;;;;;;5062100;28;20058;-65
2023/09/17 05:02:08;;;;;;;4.72;2.97;;;19.40;76.90;;;;;;5046277;28;20100;-65
2023/09/17 05:04:34;;;;;;;5.28;3.08;;;19.50;77.20;;;;;;5061827;28;20037;-65
2023/09/17 05:07:00;;;;;;;3.72;2.42;;;19.40;77.10;;;;;;5059410;28;20032;-65
2023/09/17 05:09:26;;;;;;;3.28;2.28;;;19.40;77.10;;;;;;5039171;28;20048;-65
2023/09/17 05:11:52;;;;;;;4.28;2.15;;;19.40;77.30;;;;;;5059365;28;20093;-65
2023/09/17 05:14:18;;;;;;;3.50;2.20;;;19.40;77.90;;;;;;5035940;28;20059;-65
2023/09/17 05:16:43;;;;;;;4.43;2.40;;;19.40;77.40;;;;;;5060521;28;20029;-64
2023/09/17 05:19:09;;;;;;;3.80;2.65;;;19.40;77.40;;;;;;5057507;28;20543;-66
2023/09/17 05:21:35;;;;;;;4.07;2.75;;;19.40;77.50;;;;;;5058242;28;20052;-66
2023/09/17 05:24:01;;;;;;;3.80;2.63;;;19.30;77.50;;;;;;5060486;28;20063;-65
2023/09/17 05:26:26;;;;;;;3.60;2.17;;;19.40;77.60;;;;;;5062717;28;20049;-65
2023/09/17 05:28:52;;;;;;;5.15;2.75;;;19.40;77.60;;;;;;5059911;28;20032;-65
2023/09/17 05:31:18;;;;;;;4.25;2.90;;;19.40;77.80;;;;;;5058429;28;20050;-64
2023/09/17 05:33:43;;;;;;;6.75;2.75;;;19.40;77.80;;;;;;5041892;28;20033;-64
2023/09/17 05:36:09;;;;;;;5.22;2.70;;;19.40;78.00;;;;;;5038253;28;20043;-65
2023/09/17 05:38:36;;;;;;;3.00;1.98;;;19.30;78.20;;;;;;5037726;28;20090;-65
2023/09/17 05:41:01;;;;;;;2.97;2.30;;;19.30;78.30;;;;;;5059914;28;20111;-65
2023/09/17 05:43:27;;;;;;;2.88;2.58;;;19.30;78.30;;;;;;5041704;28;20116;-65
2023/09/17 05:45:56;;;;;;;3.08;2.13;;;19.30;78.50;;;;;;5058350;28;20345;-65
2023/09/17 05:48:23;;;;;;;3.33;2.42;;;19.30;78.50;;;;;;5060012;28;20039;-65
2023/09/17 05:50:55;;;;;;;2.80;2.05;;;19.30;78.60;;;;;;5061105;28;20033;-65
2023/09/17 05:53:20;;;;;;;;;;;19.40;78.60;;;;;;5059970;28;20540;-65
2023/09/17 05:55:46;;;;;;;3.03;2.58;;;19.30;78.70;;;;;;5058451;28;19916;-65
2023/09/17 05:58:12;;;;;;;2.63;2.03;;;19.30;78.80;;;;;;5057402;28;20024;-65
2023/09/17 06:00:37;;;;;;;3.25;2.05;;;19.30;78.80;;;;;;5059689;28;20518;-65
2023/09/17 06:03:03;;;;;;;2.22;1.80;;;19.30;78.70;;;;;;5052809;28;20268;-65
2023/09/17 06:05:29;;;;;;;3.53;2.10;;;19.30;78.60;;;;;;5060423;28;20082;-64
2023/09/17 06:07:55;;;;;;;2.10;1.70;;;19.20;78.60;;;;;;5061082;28;20036;-64
2023/09/17 06:10:21;;;;;;;2.45;2.08;;;19.30;78.70;;;;;;5050340;28;20052;-64
2023/09/17 06:12:47;;;;;;;3.92;2.00;;;19.20;78.70;;;;;;5038087;28;20455;-64
2023/09/17 06:15:13;;;;;;;2.78;2.20;;;19.20;78.90;;;;;;5055438;28;20123;-64
2023/09/17 06:17:39;;;;;;;11.95;2.92;;;19.20;79.00;;;;;;5043918;28;20547;-64
2023/09/17 06:20:05;;;;;;;3.20;2.17;;;19.20;78.80;;;;;;5042698;28;20036;-65
2023/09/17 06:22:32;;;;;;;2.10;1.75;;;19.20;78.90;;;;;;5055282;28;20391;-66
2023/09/17 06:24:57;;;;;;;1.70;1.50;;;19.20;78.90;;;;;;5052761;28;20029;-64
2023/09/17 06:27:23;;;;;;;2.80;1.73;;;19.30;78.80;;;;;;5025083;28;20040;-64
2023/09/17 06:29:49;;;;;;;4.10;2.25;;;19.30;78.70;;;;;;5057596;28;20048;-64
2023/09/17 06:32:15;;;;;;;3.15;2.53;;;19.30;78.60;;;;;;5030842;28;20032;-64
2023/09/17 06:34:41;;;;;;;3.15;1.85;;;19.30;78.70;;;;;;5064864;28;20474;-64
2023/09/17 06:37:06;;;;;;;3.05;2.38;;;19.30;78.80;;;;;;5058476;28;20032;-64
2023/09/17 06:39:32;;;;;;;1.75;1.65;;;19.20;79.50;;;;;;5020987;28;20024;-66
2023/09/17 06:41:58;;;;;;;3.65;1.67;;;19.20;78.80;;;;;;5057456;28;20037;-66
2023/09/17 06:44:24;;;;;;;3.47;2.22;;;19.20;78.70;;;;;;5053326;28;20029;-67
2023/09/17 06:46:50;;;;;;;2.50;2.03;;;19.20;78.80;;;;;;5049946;28;20025;-68
2023/09/17 06:49:16;;;;;;;1.88;1.65;;;19.20;78.80;;;;;;5050965;28;20471;-68
2023/09/17 06:51:42;;;;;;;1.77;1.55;;;19.20;78.80;;;;;;5057598;28;20027;-68
2023/09/17 06:54:08;;;;;;;1.20;1.10;;;19.20;78.80;;;;;;5037315;28;20388;-68
2023/09/17 06:56:33;;;;;;;2.65;1.83;;;19.20;78.60;;;;;;5023757;28;20086;-65
2023/09/17 06:58:59;;;;;;;1.75;1.48;;;19.30;78.60;;;;;;5060756;28;20052;-64
2023/09/17 07:01:25;;;;;;;3.00;2.00;;;19.30;78.60;;;;;;5058384;28;20025;-64
2023/09/17 07:03:52;;;;;;;2.90;2.10;;;19.30;78.60;;;;;;5055259;28;20025;-64
2023/09/17 07:06:18;;;;;;;1.30;1.20;;;19.30;78.50;;;;;;5063584;28;20129;-64
2023/09/17 07:08:44;;;;;;;2.20;1.77;;;19.30;78.40;;;;;;5041288;28;20150;-64
2023/09/17 07:11:09;;;;;;;4.47;1.60;;;19.40;78.40;;;;;;5056014;28;20033;-66
2023/09/17 07:13:35;;;;;;;2.13;1.92;;;19.40;78.30;;;;;;5048696;28;20519;-64
2023/09/17 07:16:01;;;;;;;2.25;2.05;;;19.40;78.40;;;;;;5055219;28;20080;-64
2023/09/17 07:18:30;;;;;;;1.30;1.17;;;19.40;78.50;;;;;;5045296;28;20032;-64
2023/09/17 07:20:55;;;;;;;2.45;1.70;;;19.50;78.50;;;;;;5034600;28;20029;-65
2023/09/17 07:23:21;;;;;;;2.13;1.92;;;19.50;78.40;;;;;;5055310;28;20528;-68
2023/09/17 07:25:47;;;;;;;2.38;1.80;;;19.50;78.40;;;;;;5053353;28;20511;-68
2023/09/17 07:28:13;;;;;;;1.83;1.38;;;19.60;78.40;;;;;;5052837;28;20480;-68
2023/09/17 07:30:38;;;;;;;2.08;1.35;;;19.60;78.30;;;;;;5061045;28;20044;-65
2023/09/17 07:33:05;;;;;;;1.65;1.42;;;19.60;78.30;;;;;;5031085;28;20033;-65
2023/09/17 07:35:32;;;;;;;4.38;1.90;;;19.60;78.20;;;;;;5046775;28;20068;-66
2023/09/17 07:37:59;;;;;;;1.92;1.45;;;19.60;78.10;;;;;;5069444;28;20029;-64
2023/09/17 07:40:25;;;;;;;1.75;1.30;;;19.60;78.10;;;;;;5050844;28;20024;-65
2023/09/17 07:42:51;;;;;;;1.85;1.30;;;19.60;78.00;;;;;;5064873;28;20029;-65
2023/09/17 07:45:16;;;;;;;2.45;1.63;;;19.60;78.00;;;;;;5070349;28;20450;-66
2023/09/17 07:47:42;;;;;;;2.22;1.90;;;19.60;78.00;;;;;;5037804;28;20040;-65
2023/09/17 07:50:09;;;;;;;1.98;1.70;;;19.60;78.10;;;;;;5052996;28;20020;-65
2023/09/17 07:52:35;;;;;;;2.17;1.92;;;19.60;78.10;;;;;;5052502;28;20029;-65
2023/09/17 07:55:01;;;;;;;1.70;1.50;;;19.60;78.70;;;;;;5036665;28;20067;-66
2023/09/17 07:57:27;;;;;;;2.30;1.80;;;19.60;78.20;;;;;;5067440;28;20025;-65
2023/09/17 07:59:53;;;;;;;1.83;1.52;;;19.60;78.30;;;;;;5049717;28;20032;-65
2023/09/17 08:02:19;;;;;;;2.15;1.70;;;19.60;78.20;;;;;;5070207;28;20081;-66
2023/09/17 08:04:44;;;;;;;3.00;1.98;;;19.60;78.20;;;;;;5048329;28;20036;-66
2023/09/17 08:07:11;;;;;;;2.10;1.63;;;19.60;78.20;;;;;;5049430;28;20020;-65
2023/09/17 08:09:38;;;;;;;1.65;1.38;;;19.60;78.20;;;;;;5040546;28;20040;-66
2023/09/17 08:12:05;;;;;;;2.22;1.63;;;19.60;78.20;;;;;;5061948;28;20039;-66
2023/09/17 08:14:34;;;;;;;2.78;2.10;;;19.60;78.10;;;;;;5021047;28;20032;-66
2023/09/17 08:17:00;;;;;;;3.67;1.55;;;19.60;78.10;;;;;;5054197;28;20019;-66
2023/09/17 08:19:26;;;;;;;3.17;2.35;;;19.60;78.20;;;;;;5070708;28;20525;-66
2023/09/17 08:21:51;;;;;;;3.03;1.98;;;19.60;78.30;;;;;;5068742;28;20020;-66
2023/09/17 08:24:20;;;;;;;3.17;1.95;;;19.60;78.50;;;;;;5048652;28;20123;-66
2023/09/17 08:26:49;;;;;;;2.75;2.00;;;19.60;78.40;;;;;;5067792;28;20025;-66
2023/09/17 08:29:14;;;;;;;2.92;1.75;;;19.60;78.50;;;;;;5035521;28;20025;-66
2023/09/17 08:31:40;;;;;;;4.85;2.53;;;19.70;78.40;;;;;;5048281;28;20055;-66
2023/09/17 08:34:06;;;;;;;4.03;2.25;;;19.70;78.40;;;;;;5065835;28;20476;-66
2023/09/17 08:36:32;;;;;;;4.03;2.47;;;19.70;78.40;;;;;;5067964;28;20035;-66
2023/09/17 08:38:58;;;;;;;3.83;3.05;;;19.70;78.40;;;;;;5051819;28;20033;-66
2023/09/17 08:41:24;;;;;;;2.97;2.20;;;19.60;78.40;;;;;;5048201;28;20032;-66
2023/09/17 08:43:53;;;;;;;3.63;2.35;;;19.60;78.70;;;;;;5041965;28;20020;-66
2023/09/17 08:46:20;;;;;;;3.17;2.88;;;19.60;78.80;;;;;;5064051;28;20307;-66
2023/09/17 08:48:46;;;;;;;3.95;2.25;;;19.50;79.00;;;;;;5065678;28;20086;-66
2023/09/17 08:51:15;;;;;;;3.30;2.60;;;19.50;79.10;;;;;;5057782;28;20036;-66
2023/09/17 08:53:50;;;;;;;4.50;3.20;;;19.50;79.20;;;;;;5061528;28;20059;-66
2023/09/17 08:56:17;;;;;;;4.70;3.10;;;19.60;79.30;;;;;;5056585;28;20714;-65
2023/09/17 08:58:51;;;;;;;6.45;3.50;;;19.50;79.30;;;;;;5058152;28;20044;-66
2023/09/17 09:01:19;;;;;;;4.82;2.83;;;19.50;79.40;;;;;;5062213;28;20024;-66
2023/09/17 09:03:45;;;;;;;5.30;3.03;;;19.50;79.50;;;;;;5032294;28;20033;-65
2023/09/17 09:06:12;;;;;;;4.47;3.03;;;19.60;79.60;;;;;;5065202;28;20467;-65
2023/09/17 09:08:42;;;;;;;5.50;3.22;;;19.60;79.70;;;;;;5048045;28;20040;-64
2023/09/17 09:11:08;;;;;;;4.65;2.95;;;19.60;79.60;;;;;;5065040;28;20024;-66
2023/09/17 09:13:37;;;;;;;3.90;3.03;;;19.70;79.80;;;;;;5063556;28;20495;-65
2023/09/17 09:16:03;;;;;;;6.10;3.10;;;19.70;79.90;;;;;;5047223;28;20550;-66
2023/09/17 09:18:29;;;;;;;4.45;2.78;;;19.80;79.90;;;;;;5066313;28;20028;-65
2023/09/17 09:20:55;;;;;;;5.20;2.38;;;19.80;79.80;;;;;;5062591;28;20017;-65
2023/09/17 09:23:23;;;;;;;4.70;3.03;;;19.90;79.80;;;;;;5031510;28;20104;-66
2023/09/17 09:25:49;;;;;;;4.80;2.90;;;20.00;79.80;;;;;;5067575;28;20033;-67
2023/09/17 09:28:14;;;;;;;3.35;2.70;;;20.00;79.50;;;;;;5064980;28;20055;-65
2023/09/17 09:30:43;;;;;;;3.88;2.92;;;20.10;79.50;;;;;;5067432;28;20052;-65
2023/09/17 09:33:09;;;;;;;3.72;2.38;;;20.20;79.40;;;;;;5033777;28;20503;-65
2023/09/17 09:35:35;;;;;;;4.60;2.75;;;20.20;79.40;;;;;;5061059;28;20044;-65
2023/09/17 09:38:01;;;;;;;5.45;3.35;;;20.30;79.40;;;;;;5063315;28;20036;-66
2023/09/17 09:40:27;;;;;;;5.72;2.72;;;20.40;79.40;;;;;;5067388;28;20024;-65
2023/09/17 09:42:53;;;;;;;5.20;2.90;;;20.40;79.40;;;;;;5060610;28;20024;-65
2023/09/17 09:45:18;;;;;;;2.97;2.30;;;20.40;79.50;;;;;;5063626;28;20032;-65
2023/09/17 09:47:49;;;;;;;7.20;3.92;;;20.50;79.40;;;;;;5068156;28;20040;-65
2023/09/17 09:50:25;;;;;;;5.22;3.30;;;20.50;79.50;;;;;;5061153;28;20048;-66
2023/09/17 09:52:51;;;;;;;6.40;3.40;;;20.50;79.90;;;;;;5063599;28;20574;-65
2023/09/17 09:55:18;;;;;;;5.80;3.33;;;20.40;79.90;;;;;;5048720;28;20773;-65
2023/09/17 09:57:45;;;;;;;5.70;3.50;;;20.40;80.00;;;;;;5063893;28;20514;-65
2023/09/17 10:00:12;;;;;;;6.00;3.70;;;20.50;80.00;;;;;;5061980;28;20077;-64
2023/09/17 10:02:38;;;;;;;3.17;2.60;;;20.50;80.00;;;;;;5057444;28;20117;-65
2023/09/17 10:05:04;;;;;;;2.92;2.60;;;20.50;79.80;;;;;;5064350;28;20486;-65
2023/09/17 10:07:31;;;;;;;4.68;3.50;;;20.60;79.90;;;;;;5060410;28;20040;-66
2023/09/17 10:09:58;;;;;;;3.38;2.78;;;20.60;79.90;;;;;;5062798;28;20043;-66
2023/09/17 10:12:25;;;;;;;3.10;2.10;;;20.70;79.70;;;;;;5063219;28;20016;-65
2023/09/17 10:14:50;;;;;;;4.22;2.63;;;20.80;79.60;;;;;;5048940;28;20029;-65
2023/09/17 10:17:17;;;;;;;6.80;3.65;;;20.90;79.60;;;;;;5048725;28;20614;-65
2023/09/17 10:19:46;;;;;;;4.63;2.85;;;20.90;79.50;;;;;;5046670;28;20502;-65
2023/09/17 10:22:13;;;;;;;3.60;2.97;;;20.90;79.40;;;;;;5062874;28;20488;-65
2023/09/17 10:24:39;;;;;;;4.55;2.15;;;20.90;79.50;;;;;;5063436;28;20028;-65
2023/09/17 10:27:08;;;;;;;3.60;2.22;;;21.00;80.10;;;;;;5042631;28;20383;-65
2023/09/17 10:29:42;;;;;;;7.38;4.13;;;21.00;79.40;;;;;;5064500;28;20059;-65
2023/09/17 10:32:09;;;;;;;4.97;2.90;;;21.10;79.50;;;;;;5043435;28;20127;-66
2023/09/17 10:34:35;;;;;;;7.35;4.10;;;21.10;79.50;;;;;;5062722;28;20531;-65
2023/09/17 10:37:06;;;;;;;5.85;3.60;;;21.10;79.60;;;;;;5062812;28;20048;-65
2023/09/17 10:39:33;;;;;;;6.00;3.17;;;21.10;79.70;;;;;;5065013;28;20442;-65
2023/09/17 10:42:04;;;;;;;5.30;3.60;;;21.10;79.70;;;;;;5059043;28;20021;-65
2023/09/17 10:44:30;;;;;;;6.33;3.37;;;21.10;79.80;;;;;;5057930;28;20037;-65
2023/09/17 10:46:59;;;;;;;5.25;2.90;;;21.10;79.70;;;;;;5045247;28;20481;-65
2023/09/17 10:49:26;;;;;;;4.15;3.13;;;21.20;79.70;;;;;;5057631;28;20706;-66
2023/09/17 10:51:53;;;;;;;5.45;2.58;;;21.30;79.50;;;;;;5047968;28;20017;-65
2023/09/17 10:54:19;;;;;;;5.05;2.88;;;21.40;79.50;;;;;;5062909;28;20494;-65
2023/09/17 10:56:45;;;;;;;7.07;3.42;;;21.50;79.40;;;;;;5064161;28;20028;-66
2023/09/17 10:59:15;;;;;;;6.07;4.00;;;21.50;79.30;;;;;;5046553;28;20052;-65
2023/09/17 11:01:43;;;;;;;7.47;5.13;;;21.50;79.40;;;;;;5072010;28;20419;-65
2023/09/17 11:04:18;;;;;;;7.88;4.22;;;21.60;79.80;;;;;;5064244;28;20543;-65
2023/09/17 11:06:46;;;;;;;6.05;3.85;;;21.60;79.80;;;;;;5058657;28;20120;-65
2023/09/17 11:09:14;;;;;;;4.63;3.10;;;21.60;79.70;;;;;;5042979;28;20020;-65
2023/09/17 11:11:40;;;;;;;2.85;2.22;;;21.60;79.70;;;;;;5025356;28;20063;-65
2023/09/17 11:14:08;;;;;;;6.25;4.18;;;21.60;79.70;;;;;;5066391;28;20032;-65
2023/09/17 11:16:35;;;;;;;13.10;5.22;;;21.60;79.80;;;;;;5068044;28;20036;-65
2023/09/17 11:19:12;;;;;;;12.32;5.00;;;21.60;79.90;;;;;;5065285;28;20019;-65
2023/09/17 11:21:48;;;;;;;9.48;4.93;;;21.60;80.10;;;;;;5060352;28;20373;-65
2023/09/17 11:24:17;;;;;;;7.07;4.07;;;21.50;80.50;;;;;;5070530;28;20486;-65
2023/09/17 11:26:45;;;;;;;5.55;4.07;;;21.50;80.50;;;;;;5061030;28;20405;-66
2023/09/17 11:29:11;;;;;;;4.50;2.60;;;21.60;80.40;;;;;;5067395;28;20048;-66
2023/09/17 11:32:07;;;;;;;5.05;3.30;;;21.70;80.10;;;;;;5052006;28;20040;-66
2023/09/17 11:34:36;;;;;;;6.07;4.13;;;21.80;80.10;;;;;;5042215;28;20060;-65
2023/09/17 11:37:06;;;;;;;8.68;3.70;;;21.80;80.00;;;;;;5047732;28;20074;-65
2023/09/17 11:39:35;;;;;;;5.35;3.45;;;21.90;79.90;;;;;;5050367;28;20090;-65
2023/09/17 11:42:11;;;;;;;9.88;4.50;;;22.00;79.70;;;;;;5048083;28;20109;-65
2023/09/17 11:44:37;;;;;;;6.38;4.15;;;22.10;79.80;;;;;;5068878;28;20039;-65
2023/09/17 11:47:04;;;;;;;8.75;4.68;;;22.10;79.60;;;;;;5028399;28;20479;-65
2023/09/17 11:49:31;;;;;;;7.35;3.40;;;22.10;79.80;;;;;;5064701;28;20395;-66
2023/09/17 11:51:57;;;;;;;11.55;5.78;;;22.10;79.80;;;;;;5035687;28;20032;-66
2023/09/17 11:54:39;;;;;;;8.70;5.35;;;22.10;80.00;;;;;;5065803;28;20024;-65
2023/09/17 11:57:04;;;;;;;6.90;3.75;;;22.10;80.10;;;;;;5070729;28;20024;-65
2023/09/17 11:59:37;;;;;;;6.47;4.22;;;22.10;80.20;;;;;;5067223;28;20233;-65
2023/09/17 12:02:05;;;;;;;7.95;4.35;;;22.10;80.10;;;;;;5061765;28;20017;-66
2023/09/17 12:04:35;;;;;;;10.98;6.25;;;22.20;80.20;;;;;;5055258;28;20121;-65
2023/09/17 12:07:07;;;;;;;11.40;5.50;;;22.10;80.20;;;;;;5063495;28;20479;-65
2023/09/17 12:12:06;;;;;;;7.35;4.00;;;22.10;80.50;;;;;;5066305;28;20133;-65
2023/09/17 12:14:35;;;;;;;7.82;4.70;;;22.00;80.40;;;;;;5062959;28;20058;-64
2023/09/17 12:17:02;;;;;;;7.07;4.38;;;22.10;80.60;;;;;;5065862;28;20025;-65
2023/09/17 12:19:28;;;;;;;7.53;5.03;;;22.10;80.50;;;;;;5066716;28;20032;-66
2023/09/17 12:21:56;;;;;;;5.00;3.60;;;22.10;80.70;;;;;;5031774;28;20037;-65
2023/09/17 12:24:44;;;;;;;5.57;4.00;;;22.10;81.20;;;;;;5065717;28;20025;-65
2023/09/17 12:27:29;;;;;;;6.93;4.47;;;22.10;80.60;;;;;;5067241;28;20110;-65
2023/09/17 12:29:55;;;;;;;6.90;3.83;;;22.10;80.70;;;;;;5063451;28;20074;-65
2023/09/17 12:32:26;;;;;;;7.40;4.22;;;22.00;80.70;;;;;;5066623;28;20021;-65
2023/09/17 12:34:53;;;;;;;9.77;5.68;;;22.10;81.00;;;;;;5070206;28;20032;-65
2023/09/17 12:37:20;;;;;;;6.50;4.20;;;22.00;81.10;;;;;;5062116;28;20527;-65
2023/09/17 12:39:49;;;;;;;6.38;3.78;;;22.10;81.20;;;;;;5067418;28;20024;-65
2023/09/17 12:42:15;;;;;;;9.88;4.38;;;22.20;81.10;;;;;;5064991;28;20037;-65
2023/09/17 12:44:42;;;;;;;9.65;6.00;;;22.20;81.00;;;;;;5063896;28;20023;-65
2023/09/17 12:47:08;;;;;;;9.27;4.50;;;22.20;81.20;;;;;;5063798;28;20265;-65
2023/09/17 12:49:33;;;;;;;8.82;4.85;;;22.30;81.30;;;;;;5067011;28;20128;-65